createdAt,value
2023-02-20T00:00:25.291Z,5.97
2023-02-20T00:02:51.857Z,5.53
2023-02-20T00:05:19.319Z,6.00
2023-02-20T00:07:45.874Z,5.50
2023-02-20T00:10:13.049Z,5.68
2023-02-20T00:12:39.894Z,6.15
2023-02-20T00:15:07.260Z,5.70
2023-02-20T00:17:33.831Z,6.68
2023-02-20T00:20:01.233Z,5.90
2023-02-20T00:22:28.084Z,6.43
2023-02-20T00:24:54.628Z,6.60
2023-02-20T00:27:21.201Z,6.78
2023-02-20T00:29:47.883Z,7.25
2023-02-20T00:32:14.417Z,6.68
2023-02-20T00:34:40.938Z,6.93
2023-02-20T00:37:07.488Z,6.28
2023-02-20T00:39:34.198Z,6.85
2023-02-20T00:42:00.766Z,7.28
2023-02-20T00:44:27.295Z,6.45
2023-02-20T00:46:53.771Z,6.10
2023-02-20T00:49:20.319Z,6.35
2023-02-20T00:51:47.022Z,6.03
2023-02-20T00:54:14.156Z,7.18
2023-02-20T00:56:40.991Z,5.97
2023-02-20T00:59:07.515Z,6.45
2023-02-20T01:01:34.195Z,6.97
2023-02-20T01:04:00.912Z,6.78
2023-02-20T01:06:27.458Z,7.35
2023-02-20T01:08:53.939Z,7.05
2023-02-20T01:11:20.559Z,6.95
2023-02-20T01:13:47.138Z,5.93
2023-02-20T01:16:14.002Z,7.60
2023-02-20T01:18:40.711Z,5.38
2023-02-20T01:21:07.191Z,5.93
2023-02-20T01:23:33.702Z,6.72
2023-02-20T01:26:00.152Z,5.60
2023-02-20T01:28:26.725Z,7.50
2023-02-20T01:30:53.342Z,6.72
2023-02-20T01:33:19.870Z,7.00
2023-02-20T01:35:46.356Z,6.30
2023-02-20T01:38:12.904Z,7.20
2023-02-20T01:40:39.423Z,6.28
2023-02-20T01:43:10.753Z,6.88
2023-02-20T01:45:38.965Z,7.22
2023-02-20T01:48:05.663Z,7.40
2023-02-20T01:50:38.559Z,7.03
2023-02-20T01:53:10.541Z,6.32
2023-02-20T01:55:44.078Z,7.13
2023-02-20T01:58:17.295Z,5.50
2023-02-20T02:00:43.815Z,6.40
2023-02-20T02:03:13.753Z,5.72
2023-02-20T02:05:44.377Z,5.47
2023-02-20T02:08:11.729Z,5.43
2023-02-20T02:10:52.192Z,5.38
2023-02-20T02:13:18.781Z,5.53
2023-02-20T02:15:45.463Z,5.50
2023-02-20T02:18:44.426Z,5.05
2023-02-20T02:21:49.096Z,5.45
2023-02-20T02:24:53.443Z,4.93
2023-02-20T02:27:41.783Z,5.68
2023-02-20T02:30:41.993Z,5.63
2023-02-20T02:33:27.482Z,4.38
2023-02-20T02:36:27.438Z,3.25
2023-02-20T02:38:53.874Z,4.25
2023-02-20T02:41:22.770Z,4.65
2023-02-20T02:44:14.785Z,3.78
2023-02-20T02:46:56.158Z,5.60
2023-02-20T02:49:37.433Z,4.30
2023-02-20T02:52:05.437Z,4.47
2023-02-20T02:54:32.000Z,4.90
2023-02-20T02:57:23.861Z,3.88
2023-02-20T02:59:56.174Z,3.63
2023-02-20T03:02:24.426Z,3.25
2023-02-20T03:04:52.859Z,3.70
2023-02-20T03:07:20.690Z,3.78
2023-02-20T03:10:00.440Z,4.57
2023-02-20T03:12:28.278Z,3.88
2023-02-20T03:15:02.783Z,4.00
2023-02-20T03:17:52.344Z,2.53
2023-02-20T03:20:24.348Z,3.20
2023-02-20T03:22:58.226Z,3.15
2023-02-20T03:25:40.383Z,3.63
2023-02-20T03:28:09.438Z,3.80
2023-02-20T03:31:04.115Z,3.47
2023-02-20T03:33:35.947Z,3.78
2023-02-20T03:36:06.154Z,3.28
2023-02-20T03:41:04.469Z,3.03
2023-02-20T03:43:34.342Z,3.15
2023-02-20T03:46:06.332Z,3.05
2023-02-20T03:48:52.197Z,3.55
2023-02-20T03:51:18.966Z,2.85
2023-02-20T03:53:46.430Z,4.03
2023-02-20T03:56:46.803Z,2.35
2023-02-20T03:59:22.204Z,2.70
2023-02-20T04:01:54.566Z,3.65
2023-02-20T04:04:26.287Z,3.00
2023-02-20T04:06:54.060Z,2.72
2023-02-20T04:09:28.556Z,2.88
2023-02-20T04:12:12.066Z,3.67
2023-02-20T04:14:39.211Z,2.35
2023-02-20T04:17:12.227Z,2.40
2023-02-20T04:19:38.834Z,2.00
2023-02-20T04:22:09.318Z,3.05
2023-02-20T04:24:52.090Z,2.70
2023-02-20T04:27:18.876Z,2.63
2023-02-20T04:29:45.427Z,2.00
2023-02-20T04:32:12.099Z,2.50
2023-02-20T04:34:38.578Z,1.55
2023-02-20T04:37:09.519Z,2.33
2023-02-20T04:39:36.146Z,2.90
2023-02-20T04:42:03.238Z,2.08
2023-02-20T04:44:29.878Z,2.33
2023-02-20T04:46:56.781Z,2.67
2023-02-20T04:49:23.379Z,2.28
2023-02-20T04:51:49.902Z,2.13
2023-02-20T04:54:16.476Z,2.42
2023-02-20T04:56:43.112Z,2.97
2023-02-20T04:59:09.736Z,2.28
2023-02-20T05:01:36.278Z,2.47
2023-02-20T05:04:02.828Z,2.20
2023-02-20T05:06:29.346Z,1.80
2023-02-20T05:08:55.830Z,2.22
2023-02-20T05:11:22.410Z,2.63
2023-02-20T05:13:48.927Z,2.17
2023-02-20T05:16:15.748Z,2.30
2023-02-20T05:18:42.446Z,2.33
2023-02-20T05:21:13.864Z,2.78
2023-02-20T05:23:40.404Z,3.28
2023-02-20T05:26:11.680Z,2.30
2023-02-20T05:28:38.944Z,2.45
2023-02-20T05:31:06.375Z,2.42
2023-02-20T05:33:32.934Z,3.03
2023-02-20T05:36:00.196Z,2.22
2023-02-20T05:38:26.756Z,2.28
2023-02-20T05:40:53.527Z,2.65
2023-02-20T05:43:20.120Z,3.20
2023-02-20T05:45:46.686Z,2.35
2023-02-20T05:48:14.002Z,2.40
2023-02-20T05:50:40.886Z,2.58
2023-02-20T05:53:07.683Z,2.50
2023-02-20T05:55:34.290Z,2.88
2023-02-20T05:58:00.852Z,2.50
2023-02-20T06:00:27.423Z,2.38
2023-02-20T06:02:53.905Z,2.70
2023-02-20T06:05:20.492Z,2.63
2023-02-20T06:07:47.047Z,3.25
2023-02-20T06:10:18.042Z,2.60
2023-02-20T06:12:44.519Z,2.10
2023-02-20T06:15:11.015Z,2.67
2023-02-20T06:17:37.496Z,3.28
2023-02-20T06:20:04.291Z,3.08
2023-02-20T06:22:30.799Z,3.33
2023-02-20T06:24:57.319Z,3.03
2023-02-20T06:27:23.809Z,3.10
2023-02-20T06:29:50.364Z,3.83
2023-02-20T06:32:17.321Z,4.25
2023-02-20T06:34:45.310Z,3.30
2023-02-20T06:37:11.902Z,3.40
2023-02-20T06:39:38.473Z,3.10
2023-02-20T06:42:05.843Z,3.30
2023-02-20T06:44:32.356Z,3.80
2023-02-20T06:46:59.604Z,4.40
2023-02-20T06:49:26.090Z,4.70
2023-02-20T06:51:53.836Z,4.28
2023-02-20T06:54:20.802Z,4.22
2023-02-20T06:56:47.970Z,4.72
2023-02-20T06:59:14.954Z,5.70
2023-02-20T07:01:43.030Z,5.45
2023-02-20T07:04:21.143Z,5.03
2023-02-20T07:06:48.117Z,5.70
2023-02-20T07:09:15.480Z,5.90
2023-02-20T07:11:42.652Z,5.88
2023-02-20T07:14:09.476Z,6.10
2023-02-20T07:16:36.067Z,6.50
2023-02-20T07:19:02.543Z,8.07
2023-02-20T07:21:29.034Z,7.20
2023-02-20T07:23:55.580Z,7.07
2023-02-20T07:26:27.685Z,6.68
2023-02-20T07:28:55.170Z,5.90
2023-02-20T07:31:22.086Z,6.60
2023-02-20T07:33:48.598Z,5.38
2023-02-20T07:36:15.902Z,4.75
2023-02-20T07:38:43.435Z,5.05
2023-02-20T07:41:10.313Z,5.53
2023-02-20T07:43:36.864Z,5.53
2023-02-20T07:46:03.699Z,5.88
2023-02-20T07:48:30.249Z,5.68
2023-02-20T07:50:56.749Z,5.35
2023-02-20T07:53:23.229Z,4.80
2023-02-20T07:55:49.704Z,4.55
2023-02-20T07:58:16.226Z,5.25
2023-02-20T08:00:42.711Z,4.40
2023-02-20T08:03:09.171Z,5.47
2023-02-20T08:05:48.041Z,4.68
2023-02-20T08:08:15.410Z,4.93
2023-02-20T08:10:41.910Z,4.15
2023-02-20T08:13:08.482Z,3.42
2023-02-20T08:15:35.018Z,4.93
2023-02-20T08:18:01.522Z,4.82
2023-02-20T08:20:28.076Z,5.28
2023-02-20T08:22:54.620Z,4.85
2023-02-20T08:25:21.172Z,4.65
2023-02-20T08:27:49.437Z,5.22
2023-02-20T08:30:28.040Z,4.50
2023-02-20T08:32:55.878Z,5.22
2023-02-20T08:35:23.475Z,4.85
2023-02-20T08:37:50.230Z,5.80
2023-02-20T08:40:16.888Z,6.85
2023-02-20T08:42:43.513Z,6.45
2023-02-20T08:45:10.640Z,6.75
2023-02-20T08:47:37.219Z,6.53
2023-02-20T08:50:04.383Z,5.90
2023-02-20T08:52:30.889Z,5.90
2023-02-20T08:54:57.395Z,6.53
2023-02-20T08:57:23.896Z,6.60
2023-02-20T08:59:50.374Z,6.03
2023-02-20T09:02:19.353Z,6.28
2023-02-20T09:04:46.295Z,5.35
2023-02-20T09:07:14.093Z,6.00
2023-02-20T09:09:40.671Z,5.20
2023-02-20T09:12:08.368Z,5.32
2023-02-20T09:14:35.199Z,5.90
2023-02-20T09:17:01.705Z,5.72
2023-02-20T09:19:28.212Z,6.53
2023-02-20T09:21:54.767Z,5.45
2023-02-20T09:24:21.319Z,6.07
2023-02-20T09:26:47.834Z,5.75
2023-02-20T09:29:14.420Z,5.68
2023-02-20T09:31:41.022Z,6.32
2023-02-20T09:34:07.647Z,6.88
2023-02-20T09:36:34.229Z,6.10
2023-02-20T09:39:00.753Z,6.45
2023-02-20T09:41:46.172Z,5.25
2023-02-20T09:44:26.750Z,6.05
2023-02-20T09:46:56.035Z,5.32
2023-02-20T09:49:26.705Z,7.05
2023-02-20T09:51:58.101Z,5.93
2023-02-20T09:54:32.331Z,5.75
2023-02-20T09:57:03.398Z,5.22
2023-02-20T09:59:34.880Z,5.35
2023-02-20T10:02:23.646Z,7.18
2023-02-20T10:05:01.283Z,5.72
2023-02-20T10:07:38.083Z,6.70
2023-02-20T10:10:28.077Z,6.72
2023-02-20T10:13:23.747Z,4.80
2023-02-20T10:16:11.602Z,5.38
2023-02-20T10:19:29.000Z,6.35
2023-02-20T10:22:21.722Z,4.47
2023-02-20T10:25:24.168Z,6.13
2023-02-20T10:28:21.269Z,5.03
2023-02-20T10:30:55.374Z,6.15
2023-02-20T10:33:38.046Z,6.07
2023-02-20T10:36:07.536Z,6.90
2023-02-20T10:38:41.103Z,5.70
2023-02-20T10:41:15.676Z,5.88
2023-02-20T10:44:04.996Z,6.32
2023-02-20T10:46:49.266Z,5.15
2023-02-20T10:49:35.819Z,5.20
2023-02-20T10:52:06.996Z,5.72
2023-02-20T10:54:41.960Z,6.57
2023-02-20T10:57:18.959Z,7.20
2023-02-20T10:59:54.278Z,7.90
2023-02-20T11:02:26.668Z,7.05
2023-02-20T11:05:00.175Z,9.45
2023-02-20T11:07:26.769Z,8.65
2023-02-20T11:09:53.287Z,7.93
2023-02-20T11:12:32.669Z,7.60
2023-02-20T11:15:04.844Z,7.35
2023-02-20T11:17:33.995Z,7.32
2023-02-20T11:20:02.160Z,6.05
2023-02-20T11:22:41.098Z,7.45
2023-02-20T11:25:25.931Z,7.82
2023-02-20T11:27:56.769Z,7.00
2023-02-20T11:30:35.750Z,7.30
2023-02-20T11:33:24.429Z,7.60
2023-02-20T11:35:56.093Z,7.13
2023-02-20T11:38:22.574Z,7.40
2023-02-20T11:41:00.966Z,7.03
2023-02-20T11:43:31.874Z,6.25
2023-02-20T11:46:09.002Z,6.60
2023-02-20T11:48:36.502Z,5.35
2023-02-20T11:51:03.132Z,5.75
2023-02-20T11:53:31.747Z,7.25
2023-02-20T11:56:09.322Z,5.78
2023-02-20T11:58:37.428Z,5.38
2023-02-20T12:01:04.226Z,7.05
2023-02-20T12:03:32.220Z,7.05
2023-02-20T12:05:59.841Z,4.78
2023-02-20T12:08:38.336Z,3.78
2023-02-20T12:11:20.651Z,7.32
2023-02-20T12:13:52.784Z,7.00
2023-02-20T12:16:50.404Z,6.57
2023-02-20T12:19:39.930Z,6.50
2023-02-20T12:22:14.923Z,6.97
2023-02-20T12:24:56.676Z,7.07
2023-02-20T12:27:44.955Z,6.90
2023-02-20T12:30:23.522Z,8.23
2023-02-20T12:33:02.311Z,5.97
2023-02-20T12:35:35.712Z,7.18
2023-02-20T12:38:39.782Z,6.85
2023-02-20T12:41:21.096Z,6.40
2023-02-20T14:26:49.992Z,4.10
2023-02-20T14:29:22.112Z,6.32
2023-02-20T14:31:52.173Z,5.53
2023-02-20T14:34:36.855Z,6.15
2023-02-20T14:37:16.474Z,5.15
2023-02-20T14:39:55.716Z,6.32
2023-02-20T14:42:24.974Z,5.53
2023-02-20T14:45:01.971Z,7.18
2023-02-20T14:47:28.800Z,4.78
2023-02-20T14:50:10.623Z,4.72
2023-02-20T14:52:37.169Z,4.65
2023-02-20T14:55:06.186Z,4.82
2023-02-20T14:57:32.892Z,5.32
2023-02-20T15:00:32.112Z,5.88
2023-02-20T15:02:59.183Z,4.43
2023-02-20T15:05:31.996Z,4.45
2023-02-20T15:08:26.019Z,5.15
2023-02-20T15:10:55.050Z,4.05
2023-02-20T15:13:25.712Z,4.22
2023-02-20T15:16:03.708Z,4.35
2023-02-20T15:18:34.704Z,4.47
2023-02-20T15:21:01.862Z,5.03
2023-02-20T15:23:37.466Z,4.45
2023-02-20T15:26:31.827Z,5.05
2023-02-20T15:29:30.682Z,4.80
2023-02-20T15:32:03.624Z,4.32
2023-02-20T15:34:35.715Z,4.63
2023-02-20T15:37:18.389Z,4.30
2023-02-20T15:39:45.187Z,4.10
2023-02-20T15:42:12.217Z,3.35
2023-02-20T15:44:39.178Z,4.95
2023-02-20T15:47:05.795Z,4.38
2023-02-20T15:49:32.330Z,3.80
2023-02-20T15:52:04.745Z,5.20
2023-02-20T15:54:35.954Z,4.47
2023-02-20T15:57:02.698Z,5.03
2023-02-20T15:59:29.245Z,4.78
2023-02-20T16:01:55.986Z,4.35
2023-02-20T16:04:22.644Z,4.70
2023-02-20T16:06:49.114Z,5.57
2023-02-20T16:09:15.671Z,18.77
2023-02-20T16:11:45.869Z,5.45
2023-02-20T16:14:14.912Z,4.68
2023-02-20T16:16:44.407Z,5.70
2023-02-20T16:19:16.792Z,4.43
2023-02-20T16:21:56.902Z,4.55
2023-02-20T16:24:25.833Z,4.65
2023-02-20T16:26:52.576Z,4.88
2023-02-20T16:29:32.876Z,4.38
2023-02-20T16:31:59.436Z,4.70
2023-02-20T16:34:27.858Z,5.25
2023-02-20T16:36:57.498Z,4.70
2023-02-20T16:39:27.274Z,4.28
2023-02-20T16:41:56.467Z,3.97
2023-02-20T16:44:37.982Z,5.00
2023-02-20T16:47:05.002Z,4.68
2023-02-20T16:49:31.603Z,6.63
2023-02-20T16:51:58.153Z,4.40
2023-02-20T16:54:24.822Z,4.40
2023-02-20T16:56:51.326Z,6.05
2023-02-20T16:59:17.823Z,5.25
2023-02-20T17:01:44.325Z,4.93
2023-02-20T17:04:10.853Z,4.72
2023-02-20T17:06:37.352Z,4.75
2023-02-20T17:09:03.943Z,4.57
2023-02-20T17:11:30.469Z,4.93
2023-02-20T17:13:57.213Z,5.55
2023-02-20T17:16:31.412Z,5.20
2023-02-20T17:18:58.484Z,4.82
2023-02-20T17:21:25.051Z,4.43
2023-02-20T17:23:51.856Z,6.05
2023-02-20T17:26:18.637Z,6.07
2023-02-20T17:28:45.194Z,5.15
2023-02-20T17:31:11.990Z,6.18
2023-02-20T17:33:38.743Z,5.07
2023-02-20T17:36:05.706Z,5.43
2023-02-20T17:38:32.364Z,6.25
2023-02-20T17:40:58.894Z,5.97
2023-02-20T17:43:25.409Z,6.80
2023-02-20T17:45:52.071Z,5.22
2023-02-20T17:48:18.556Z,5.00
2023-02-20T17:50:45.191Z,4.05
2023-02-20T17:53:12.856Z,4.32
2023-02-20T17:55:39.380Z,5.55
2023-02-20T17:58:06.250Z,5.28
2023-02-20T18:00:33.092Z,5.55
2023-02-20T18:02:59.744Z,5.53
2023-02-20T18:05:26.386Z,5.93
2023-02-20T18:07:52.949Z,5.60
2023-02-20T18:10:20.571Z,5.38
2023-02-20T18:12:47.219Z,5.50
2023-02-20T18:15:13.813Z,6.57
2023-02-20T18:17:40.359Z,5.75
2023-02-20T18:20:07.092Z,6.28
2023-02-20T18:22:33.791Z,5.38
2023-02-20T18:25:00.361Z,5.45
2023-02-20T18:27:26.930Z,5.47
2023-02-20T18:29:53.552Z,5.13
2023-02-20T18:32:20.305Z,6.50
2023-02-20T18:34:47.238Z,6.15
2023-02-20T18:37:13.963Z,5.55
2023-02-20T18:39:42.500Z,5.75
2023-02-20T18:42:09.533Z,5.20
2023-02-20T18:44:36.110Z,5.70
2023-02-20T18:47:02.702Z,5.88
2023-02-20T18:49:29.179Z,5.68
2023-02-20T18:51:55.674Z,5.50
2023-02-20T18:54:23.489Z,5.45
2023-02-20T18:56:50.919Z,6.00
2023-02-20T18:59:18.379Z,6.10
2023-02-20T19:01:48.167Z,6.10
2023-02-20T19:04:15.392Z,6.65
2023-02-20T19:06:42.228Z,7.05
2023-02-20T19:09:10.702Z,6.30
2023-02-20T19:11:39.158Z,6.45
2023-02-20T19:14:05.700Z,6.55
2023-02-20T19:16:32.365Z,6.50
2023-02-20T19:18:59.027Z,6.20
2023-02-20T19:21:25.604Z,6.55
2023-02-20T19:23:52.166Z,7.25
2023-02-20T19:26:18.866Z,6.13
2023-02-20T19:28:45.461Z,6.45
2023-02-20T19:31:13.342Z,5.70
2023-02-20T19:33:40.866Z,6.13
2023-02-20T19:36:10.293Z,6.10
2023-02-20T19:38:38.544Z,6.82
2023-02-20T19:41:06.480Z,5.70
2023-02-20T19:43:33.010Z,5.63
2023-02-20T19:46:00.031Z,6.65
2023-02-20T19:48:28.282Z,5.20
2023-02-20T19:50:55.274Z,6.30
2023-02-20T19:53:21.856Z,6.65
2023-02-20T19:55:48.416Z,8.27
2023-02-20T19:58:15.249Z,7.75
2023-02-20T20:00:41.763Z,6.47
2023-02-20T20:03:08.428Z,6.40
2023-02-20T20:05:35.325Z,6.80
2023-02-20T20:08:02.243Z,7.28
2023-02-20T20:10:28.773Z,6.65
2023-02-20T20:12:55.492Z,7.53
2023-02-20T20:15:24.782Z,6.55
2023-02-20T20:17:54.308Z,6.57
2023-02-20T20:20:22.420Z,6.78
2023-02-20T20:22:50.094Z,6.18
2023-02-20T20:25:21.287Z,7.28
2023-02-20T20:27:49.024Z,6.55
2023-02-20T20:30:19.352Z,6.57
2023-02-20T20:32:47.508Z,6.30
2023-02-20T20:35:14.130Z,6.50
2023-02-20T20:37:45.087Z,6.45
2023-02-20T20:40:12.861Z,5.82
2023-02-20T20:42:39.490Z,6.00
2023-02-20T20:45:06.980Z,8.02
2023-02-20T20:47:33.523Z,6.65
2023-02-20T20:50:00.129Z,7.20
2023-02-20T20:52:27.066Z,6.80
2023-02-20T20:54:55.854Z,8.80
2023-02-20T20:57:25.482Z,7.63
2023-02-20T20:59:53.444Z,7.75
2023-02-20T21:02:20.042Z,7.32
2023-02-20T21:04:50.943Z,7.22
2023-02-20T21:07:18.882Z,7.47
2023-02-20T21:09:45.484Z,9.38
2023-02-20T21:12:14.872Z,8.35
2023-02-20T21:14:42.782Z,7.55
2023-02-20T21:17:10.914Z,7.18
2023-02-20T21:19:37.779Z,9.25
2023-02-20T21:22:05.332Z,8.43
2023-02-20T21:24:36.050Z,5.03
2023-02-20T21:27:03.348Z,8.30
2023-02-20T21:29:33.538Z,8.88
2023-02-20T21:32:01.036Z,9.20
2023-02-20T21:34:27.607Z,8.80
2023-02-20T21:36:54.121Z,8.68
2023-02-20T21:39:21.032Z,8.07
2023-02-20T21:41:47.577Z,7.95
2023-02-20T21:44:20.371Z,8.38
2023-02-20T21:46:50.049Z,8.98
2023-02-20T21:49:17.282Z,12.55
2023-02-20T21:51:43.811Z,8.13
2023-02-20T21:54:10.998Z,10.55
2023-02-20T21:56:37.583Z,9.43
2023-02-20T21:59:06.270Z,9.02
2023-02-20T22:01:35.561Z,9.27
2023-02-20T22:04:03.900Z,7.30
2023-02-20T22:06:30.523Z,9.10
2023-02-20T22:08:57.234Z,8.82
2023-02-20T22:11:23.829Z,9.30
2023-02-20T22:13:50.338Z,9.32
2023-02-20T22:16:21.020Z,9.95
2023-02-20T22:18:47.643Z,9.32
2023-02-20T22:21:19.179Z,8.88
2023-02-20T22:23:45.678Z,9.15
2023-02-20T22:26:16.211Z,9.30
2023-02-20T22:28:42.796Z,10.23
2023-02-20T22:31:09.500Z,8.73
2023-02-20T22:33:36.132Z,10.00
2023-02-20T22:36:02.764Z,9.57
2023-02-20T22:38:29.325Z,10.05
2023-02-20T22:40:55.927Z,10.07
2023-02-20T22:43:22.620Z,10.30
2023-02-20T22:45:49.127Z,9.88
2023-02-20T22:48:15.612Z,10.30
2023-02-20T22:50:42.167Z,10.27
2023-02-20T22:53:08.700Z,8.85
2023-02-20T22:55:35.346Z,10.70
2023-02-20T22:58:01.939Z,10.48
2023-02-20T23:00:28.483Z,10.52
2023-02-20T23:02:55.031Z,11.93
2023-02-20T23:05:21.951Z,11.85
2023-02-20T23:07:48.448Z,12.38
2023-02-20T23:10:16.116Z,11.23
2023-02-20T23:12:42.625Z,10.73
2023-02-20T23:15:09.172Z,11.63
2023-02-20T23:17:37.636Z,11.00
2023-02-20T23:20:07.397Z,10.20
2023-02-20T23:22:33.943Z,10.90
2023-02-20T23:25:00.534Z,10.38
2023-02-20T23:27:27.182Z,11.80
2023-02-20T23:29:53.715Z,11.32
2023-02-20T23:32:20.320Z,12.68
2023-02-20T23:34:46.893Z,11.57
2023-02-20T23:37:13.883Z,11.05
2023-02-20T23:39:40.417Z,11.30
2023-02-20T23:42:06.963Z,13.90
2023-02-20T23:44:33.530Z,13.15
2023-02-20T23:47:00.126Z,11.88
2023-02-20T23:49:26.667Z,12.75
2023-02-20T23:51:53.163Z,12.77
2023-02-20T23:54:19.744Z,11.15
2023-02-20T23:56:46.539Z,12.65
2023-02-20T23:59:13.699Z,13.73
